Auto, West Virginia
Current Conditions -  °F | °C
As of 8:55 PM on Friday 31 Oct 2014 (Local Time) from KLWB Reporting Station
Light Rain Light Rain  
Wind Chill: 42°   Ceiling: 1800
Heat Index: 42°   Visibility: 7mi
Dew Point: 40°   Wind: 0mph
Humidity: 92%   Direction: NA
Pressure: 29.83"   Gusts: NA
Location:  37.96°N, 80.33°W
Report Text: KLWB 010055Z AUTO 00000KT 7SM -RA SCT008 OVC018 05/04 A2983 RMK AO2 P0003 T00540042
Loading
Personal Weather Stations






























Interactive Weather Map
Tropical Storm Tracking
New forecast layout! Learn more

10-Day Weather Forecast

Advertisements
Track Severe Weather on mobile